createdAt,value
2018-04-18T00:00:28.064Z,0.00
2018-04-18T00:01:28.084Z,0.00
2018-04-18T00:02:28.105Z,0.00
2018-04-18T00:03:28.126Z,0.00
2018-04-18T00:04:28.148Z,0.00
2018-04-18T00:05:28.170Z,0.00
2018-04-18T00:06:28.189Z,0.00
2018-04-18T00:07:28.211Z,0.00
2018-04-18T00:08:28.232Z,0.00
2018-04-18T00:09:28.253Z,0.00
2018-04-18T00:10:28.275Z,0.00
2018-04-18T00:11:28.294Z,0.00
2018-04-18T00:12:28.316Z,0.00
2018-04-18T00:13:28.338Z,0.00
2018-04-18T00:14:28.357Z,0.00
2018-04-18T00:15:28.379Z,0.00
2018-04-18T00:16:28.399Z,0.00
2018-04-18T00:17:28.420Z,0.00
2018-04-18T00:18:28.441Z,0.00
2018-04-18T00:19:28.462Z,0.00
2018-04-18T00:20:28.482Z,0.00
2018-04-18T00:21:28.506Z,0.00
2018-04-18T00:22:28.525Z,0.00
2018-04-18T00:23:28.548Z,0.00
2018-04-18T00:24:28.566Z,0.00
2018-04-18T00:25:28.589Z,0.00
2018-04-18T00:26:28.608Z,0.00
2018-04-18T00:27:28.629Z,0.00
2018-04-18T00:28:28.650Z,0.00
2018-04-18T00:29:28.674Z,0.00
2018-04-18T00:30:28.692Z,0.00
2018-04-18T00:31:28.712Z,0.00
2018-04-18T00:32:28.735Z,0.00
2018-04-18T00:33:28.755Z,0.00
2018-04-18T00:34:28.775Z,0.00
2018-04-18T00:35:28.798Z,0.00
2018-04-18T00:36:28.824Z,0.00
2018-04-18T00:37:28.839Z,0.00
2018-04-18T00:38:28.865Z,0.00
2018-04-18T00:39:28.880Z,0.00
2018-04-18T00:40:28.904Z,0.00
2018-04-18T00:41:28.922Z,0.00
2018-04-18T00:42:28.943Z,0.00
2018-04-18T00:43:28.965Z,0.00
2018-04-18T00:44:28.986Z,0.00
2018-04-18T00:45:29.008Z,0.00
2018-04-18T00:46:29.027Z,0.00
2018-04-18T00:47:29.047Z,0.00
2018-04-18T00:48:29.069Z,0.00
2018-04-18T00:49:29.090Z,0.00
2018-04-18T00:50:29.111Z,0.00
2018-04-18T00:51:29.131Z,0.00
2018-04-18T00:52:29.157Z,0.00
2018-04-18T00:53:29.175Z,0.00
2018-04-18T00:54:29.193Z,0.00
2018-04-18T00:55:29.218Z,0.00
2018-04-18T00:56:29.235Z,0.00
2018-04-18T00:57:29.261Z,0.00
2018-04-18T00:58:29.277Z,0.00
2018-04-18T00:59:29.298Z,0.00
2018-04-18T01:00:29.319Z,0.00
2018-04-18T01:01:29.341Z,0.00
2018-04-18T01:02:29.360Z,0.00
2018-04-18T01:03:29.382Z,0.00
2018-04-18T01:04:29.402Z,0.00
2018-04-18T01:05:29.425Z,0.00
2018-04-18T01:06:29.443Z,0.00
2018-04-18T01:07:29.465Z,0.00
2018-04-18T01:08:29.487Z,0.00
2018-04-18T01:09:29.506Z,0.00
2018-04-18T01:10:29.527Z,0.00
2018-04-18T01:11:29.547Z,0.00
2018-04-18T01:12:29.571Z,0.00
2018-04-18T01:13:29.594Z,0.00
2018-04-18T01:14:29.610Z,0.00
2018-04-18T01:15:29.632Z,0.00
2018-04-18T01:16:29.652Z,0.00
2018-04-18T01:17:29.678Z,0.00
2018-04-18T01:18:29.692Z,0.00
2018-04-18T01:19:29.713Z,0.00
2018-04-18T01:20:29.738Z,0.00
2018-04-18T01:21:29.755Z,0.00
2018-04-18T01:22:29.776Z,0.00
2018-04-18T01:23:29.796Z,0.00
2018-04-18T01:24:29.819Z,0.00
2018-04-18T01:25:29.838Z,0.00
2018-04-18T01:26:29.857Z,0.00
2018-04-18T01:27:29.878Z,0.00
2018-04-18T01:28:29.900Z,0.00
2018-04-18T01:29:29.925Z,0.00
2018-04-18T01:30:29.941Z,0.00
2018-04-18T01:31:29.961Z,0.00
2018-04-18T01:32:29.983Z,0.00
2018-04-18T01:33:30.003Z,0.00
2018-04-18T01:34:30.023Z,0.00
2018-04-18T01:35:30.045Z,0.00
2018-04-18T01:36:30.065Z,0.00
2018-04-18T01:37:30.086Z,0.00
2018-04-18T01:38:30.106Z,0.00
2018-04-18T01:39:30.127Z,0.00
2018-04-18T01:40:30.147Z,0.00
2018-04-18T01:41:30.169Z,0.00
2018-04-18T01:42:30.188Z,0.00
2018-04-18T01:43:30.209Z,0.00
2018-04-18T01:44:30.229Z,0.00
2018-04-18T01:45:30.250Z,0.00
2018-04-18T01:46:30.271Z,0.00
2018-04-18T01:47:30.290Z,0.00
2018-04-18T01:48:30.311Z,0.00
2018-04-18T01:49:30.332Z,0.00
2018-04-18T01:50:30.352Z,0.00
2018-04-18T01:51:30.373Z,0.00
2018-04-18T01:52:30.394Z,0.00
2018-04-18T01:53:30.416Z,0.00
2018-04-18T01:54:30.436Z,0.00
2018-04-18T01:55:30.455Z,0.00
2018-04-18T01:56:30.477Z,0.00
2018-04-18T01:57:30.496Z,0.00
2018-04-18T01:58:30.517Z,0.00
2018-04-18T01:59:30.540Z,0.00
2018-04-18T02:00:30.559Z,0.00
2018-04-18T02:01:30.582Z,0.00
2018-04-18T02:02:30.599Z,0.00
2018-04-18T02:03:30.620Z,0.00
2018-04-18T02:04:30.644Z,0.00
2018-04-18T02:05:30.662Z,0.00
2018-04-18T02:06:30.680Z,0.00
2018-04-18T02:07:30.702Z,0.00
2018-04-18T02:08:30.723Z,0.00
2018-04-18T02:09:30.742Z,0.00
2018-04-18T02:10:30.763Z,0.00
2018-04-18T02:11:30.782Z,0.00
2018-04-18T02:12:30.804Z,0.00
2018-04-18T02:13:30.823Z,0.00
2018-04-18T02:14:30.844Z,0.00
2018-04-18T02:15:30.865Z,0.00
2018-04-18T02:16:30.884Z,0.00
2018-04-18T02:17:30.904Z,0.00
2018-04-18T02:18:30.924Z,0.00
2018-04-18T02:19:30.946Z,0.00
2018-04-18T02:20:30.965Z,0.00
2018-04-18T02:21:30.986Z,0.00
2018-04-18T02:22:31.007Z,0.00
2018-04-18T02:23:31.027Z,0.00
2018-04-18T02:24:31.047Z,0.00
2018-04-18T02:25:31.068Z,0.00
2018-04-18T02:26:31.088Z,0.00
2018-04-18T02:27:31.108Z,0.00
2018-04-18T02:28:31.129Z,0.00
2018-04-18T02:29:31.153Z,0.00
2018-04-18T02:30:31.168Z,0.00
2018-04-18T02:31:31.197Z,0.00
2018-04-18T02:32:31.210Z,0.00
2018-04-18T02:33:31.231Z,0.00
2018-04-18T02:34:31.250Z,0.00
2018-04-18T02:35:31.273Z,0.00
2018-04-18T02:36:31.286Z,0.00
2018-04-18T02:37:31.315Z,0.00
2018-04-18T02:38:31.328Z,0.00
2018-04-18T02:39:31.348Z,0.00
2018-04-18T02:40:31.381Z,0.00
2018-04-18T02:41:31.388Z,0.00
2018-04-18T02:42:31.420Z,0.00
2018-04-18T02:43:31.434Z,0.00
2018-04-18T02:44:31.458Z,0.00
2018-04-18T02:45:31.470Z,0.00
2018-04-18T02:46:31.501Z,0.00
2018-04-18T02:47:31.512Z,0.00
2018-04-18T02:48:31.538Z,0.00
2018-04-18T02:49:31.558Z,0.00
2018-04-18T02:50:31.577Z,0.00
2018-04-18T02:51:31.597Z,0.00
2018-04-18T02:52:31.610Z,0.00
2018-04-18T02:53:31.640Z,0.00
2018-04-18T02:54:31.650Z,0.00
2018-04-18T02:55:31.671Z,0.00
2018-04-18T02:56:31.706Z,0.00
2018-04-18T02:57:31.712Z,0.00
2018-04-18T02:58:31.738Z,0.00
2018-04-18T02:59:31.752Z,0.00
2018-04-18T03:00:31.780Z,0.00
2018-04-18T03:01:31.793Z,0.00
2018-04-18T03:02:31.820Z,0.00
2018-04-18T03:03:31.840Z,0.00
2018-04-18T03:04:31.852Z,0.00
2018-04-18T03:05:31.887Z,0.00
2018-04-18T03:06:31.899Z,0.00
2018-04-18T03:07:31.928Z,0.00
2018-04-18T03:08:31.940Z,0.00
2018-04-18T03:09:31.958Z,0.00
2018-04-18T03:10:31.979Z,0.00
2018-04-18T03:11:31.997Z,0.00
2018-04-18T03:12:32.023Z,0.00
2018-04-18T03:13:32.046Z,0.00
2018-04-18T03:14:32.063Z,0.00
2018-04-18T03:15:32.083Z,0.00
2018-04-18T03:16:32.095Z,0.00
2018-04-18T03:17:32.134Z,0.00
2018-04-18T03:18:32.140Z,0.00
2018-04-18T03:19:32.155Z,0.00
2018-04-18T03:20:32.182Z,0.00
2018-04-18T03:21:32.205Z,0.00
2018-04-18T03:22:32.218Z,0.00
2018-04-18T03:23:32.238Z,0.00
2018-04-18T03:24:32.261Z,0.00
2018-04-18T03:25:32.279Z,0.00
2018-04-18T03:26:32.307Z,0.00
2018-04-18T03:27:32.318Z,0.00
2018-04-18T03:28:32.347Z,0.00
2018-04-18T03:29:32.356Z,0.00
2018-04-18T03:30:32.386Z,0.00
2018-04-18T03:31:32.397Z,0.00
2018-04-18T03:32:32.422Z,0.00
2018-04-18T03:33:32.440Z,0.00
2018-04-18T03:34:32.466Z,0.00
2018-04-18T03:35:32.487Z,0.00
2018-04-18T03:36:32.499Z,0.00
2018-04-18T03:37:32.529Z,0.00
2018-04-18T03:38:32.538Z,0.00
2018-04-18T03:39:32.567Z,0.00
2018-04-18T03:40:32.581Z,0.00
2018-04-18T03:41:32.602Z,0.00
2018-04-18T03:42:32.627Z,0.00
2018-04-18T03:43:32.646Z,0.00
2018-04-18T03:44:32.659Z,0.00
2018-04-18T03:45:32.682Z,0.00
2018-04-18T03:46:32.705Z,0.00
2018-04-18T03:47:32.789Z,0.00
2018-04-18T03:48:32.746Z,0.00
2018-04-18T03:49:32.770Z,0.00
2018-04-18T03:50:32.780Z,0.00
2018-04-18T03:51:32.801Z,0.00
2018-04-18T03:52:32.827Z,4.00
2018-04-18T03:53:32.840Z,4.00
2018-04-18T03:54:32.867Z,4.00
2018-04-18T03:55:32.883Z,0.00
2018-04-18T03:56:32.905Z,4.00
2018-04-18T03:57:32.922Z,4.00
2018-04-18T03:58:32.944Z,4.00
2018-04-18T03:59:32.966Z,4.00
2018-04-18T04:00:32.982Z,4.00
2018-04-18T04:01:33.004Z,8.00
2018-04-18T04:02:33.024Z,8.00
2018-04-18T04:03:33.040Z,8.00
2018-04-18T04:04:33.068Z,12.00
2018-04-18T04:05:33.080Z,12.00
2018-04-18T04:06:33.106Z,16.00
2018-04-18T04:07:33.128Z,20.00
2018-04-18T04:08:33.141Z,20.00
2018-04-18T04:09:33.169Z,24.00
2018-04-18T04:10:33.181Z,28.00
2018-04-18T04:11:33.205Z,32.00
2018-04-18T04:12:33.222Z,36.00
2018-04-18T04:13:33.240Z,48.00
2018-04-18T04:14:33.268Z,52.00
2018-04-18T04:15:33.282Z,60.00
2018-04-18T04:16:33.308Z,72.00
2018-04-18T04:17:33.330Z,80.00
2018-04-18T04:18:33.338Z,92.00
2018-04-18T04:19:33.367Z,104.00
2018-04-18T04:20:33.378Z,116.00
2018-04-18T04:21:33.402Z,128.00
2018-04-18T04:22:33.424Z,144.00
2018-04-18T04:23:33.451Z,164.00
2018-04-18T04:24:33.467Z,180.00
2018-04-18T04:25:33.484Z,200.00
2018-04-18T04:26:33.502Z,220.00
2018-04-18T04:27:33.527Z,240.00
2018-04-18T04:28:33.539Z,260.00
2018-04-18T04:29:33.566Z,288.00
2018-04-18T04:30:33.577Z,312.00
2018-04-18T04:31:33.609Z,340.00
2018-04-18T04:32:33.619Z,364.00
2018-04-18T04:33:33.644Z,392.00
2018-04-18T04:34:33.663Z,420.00
2018-04-18T04:35:33.676Z,456.00
2018-04-18T04:36:33.701Z,484.00
2018-04-18T04:37:33.716Z,520.00
2018-04-18T04:38:33.745Z,552.00
2018-04-18T04:39:33.769Z,592.00
2018-04-18T04:40:33.776Z,628.00
2018-04-18T04:41:33.805Z,664.00
2018-04-18T04:42:33.815Z,708.00
2018-04-18T04:43:33.839Z,748.00
2018-04-18T04:44:33.864Z,788.00
2018-04-18T04:45:33.876Z,836.00
2018-04-18T04:46:33.903Z,876.00
2018-04-18T04:47:33.917Z,924.00
2018-04-18T04:48:33.941Z,972.00
2018-04-18T04:49:33.958Z,1016.00
2018-04-18T04:50:33.979Z,1064.00
2018-04-18T04:51:34.002Z,1112.00
2018-04-18T04:52:34.021Z,1156.00
2018-04-18T04:53:34.044Z,1204.00
2018-04-18T04:54:34.052Z,1256.00
2018-04-18T04:55:34.074Z,1304.00
2018-04-18T04:56:34.101Z,1352.00
2018-04-18T04:57:34.123Z,1404.00
2018-04-18T04:58:34.141Z,1456.00
2018-04-18T04:59:34.153Z,1508.00
2018-04-18T05:00:34.178Z,1552.00
2018-04-18T05:01:34.200Z,1604.00
2018-04-18T05:02:34.255Z,1652.00
2018-04-18T05:03:34.272Z,1700.00
2018-04-18T05:04:34.283Z,1756.00
2018-04-18T05:05:34.286Z,1808.00
2018-04-18T05:06:34.333Z,1864.00
2018-04-18T05:07:34.347Z,1916.00
2018-04-18T05:08:34.406Z,1968.00
2018-04-18T05:09:34.423Z,2016.00
2018-04-18T05:10:34.546Z,2064.00
2018-04-18T05:11:34.438Z,2116.00
2018-04-18T05:12:34.494Z,2172.00
2018-04-18T05:13:34.459Z,2224.00
2018-04-18T05:14:34.520Z,2276.00
2018-04-18T05:15:34.476Z,2324.00
2018-04-18T05:16:34.528Z,2376.00
2018-04-18T05:17:34.550Z,2428.00
2018-04-18T05:18:34.566Z,2476.00
2018-04-18T05:19:34.552Z,2528.00
2018-04-18T05:20:34.576Z,2584.00
2018-04-18T05:21:34.721Z,2636.00
2018-04-18T05:22:34.650Z,2692.00
2018-04-18T05:23:34.677Z,2748.00
2018-04-18T05:24:34.746Z,2796.00
2018-04-18T05:25:34.671Z,2848.00
2018-04-18T05:26:34.694Z,2896.00
2018-04-18T05:27:34.707Z,2948.00
2018-04-18T05:28:34.736Z,3000.00
2018-04-18T05:29:34.773Z,3052.00
2018-04-18T05:30:34.775Z,3108.00
2018-04-18T05:31:34.795Z,3156.00
2018-04-18T05:32:34.807Z,3208.00
2018-04-18T05:33:34.835Z,3256.00
2018-04-18T05:34:34.847Z,3312.00
2018-04-18T05:35:34.872Z,3368.00
2018-04-18T05:36:34.889Z,3420.00
2018-04-18T05:37:34.916Z,3476.00
2018-04-18T05:38:34.928Z,3532.00
2018-04-18T05:39:34.950Z,3584.00
2018-04-18T05:40:34.978Z,3640.00
2018-04-18T05:41:34.995Z,3688.00
2018-04-18T05:42:35.007Z,3736.00
2018-04-18T05:43:35.033Z,3788.00
2018-04-18T05:44:35.044Z,3844.00
2018-04-18T05:45:35.073Z,3900.00
2018-04-18T05:46:35.088Z,3948.00
2018-04-18T05:47:35.103Z,4000.00
2018-04-18T05:48:35.134Z,4056.00
2018-04-18T05:49:35.149Z,4108.00
2018-04-18T05:50:35.166Z,4160.00
2018-04-18T05:51:35.185Z,4216.00
2018-04-18T05:52:35.208Z,4268.00
2018-04-18T05:53:35.231Z,4324.00
2018-04-18T05:54:35.245Z,4376.00
2018-04-18T05:55:35.269Z,4428.00
2018-04-18T05:56:35.288Z,4484.00
2018-04-18T05:57:35.311Z,4536.00
2018-04-18T05:58:35.323Z,4588.00
2018-04-18T05:59:35.345Z,4644.00
2018-04-18T06:00:35.366Z,4700.00
2018-04-18T06:01:35.387Z,4768.00
2018-04-18T06:02:35.408Z,4824.00
2018-04-18T06:03:35.434Z,4892.00
2018-04-18T06:04:35.445Z,4964.00
2018-04-18T06:05:35.463Z,5028.00
2018-04-18T06:06:35.485Z,5096.00
2018-04-18T06:07:35.501Z,5156.00
2018-04-18T06:08:35.529Z,5216.00
2018-04-18T06:09:35.549Z,5284.00
2018-04-18T06:10:35.562Z,5348.00
2018-04-18T06:11:35.590Z,5408.00
2018-04-18T06:12:35.604Z,5472.00
2018-04-18T06:13:35.625Z,5532.00
2018-04-18T06:14:35.648Z,5592.00
2018-04-18T06:15:35.672Z,5668.00
2018-04-18T06:16:35.686Z,5732.00
2018-04-18T06:17:35.709Z,5804.00
2018-04-18T06:18:35.719Z,5888.00
2018-04-18T06:19:35.741Z,5964.00
2018-04-18T06:20:35.770Z,6040.00
2018-04-18T06:21:35.787Z,6116.00
2018-04-18T06:22:35.804Z,6208.00
2018-04-18T06:23:35.830Z,6288.00
2018-04-18T06:24:35.843Z,6372.00
2018-04-18T06:25:35.866Z,7296.00
2018-04-18T06:26:35.886Z,11376.00
2018-04-18T06:27:35.944Z,15928.00
2018-04-18T06:28:35.932Z,24160.00
2018-04-18T06:29:35.947Z,35136.00
2018-04-18T06:30:35.963Z,41056.00
2018-04-18T06:31:35.983Z,41664.00
2018-04-18T06:32:36.013Z,42144.00
2018-04-18T06:33:36.075Z,43808.00
2018-04-18T06:34:36.056Z,43488.00
2018-04-18T06:35:36.071Z,43520.00
2018-04-18T06:36:36.094Z,47456.00
2018-04-18T06:37:36.113Z,49152.00
2018-04-18T06:38:36.137Z,46752.00
2018-04-18T06:39:36.154Z,48768.00
2018-04-18T06:40:36.184Z,51104.00
2018-04-18T06:41:36.198Z,51840.00
2018-04-18T06:42:36.228Z,52576.00
2018-04-18T06:43:36.249Z,52672.00
2018-04-18T06:44:36.274Z,52800.00
2018-04-18T06:45:36.293Z,54016.00
2018-04-18T06:46:36.314Z,53696.00
2018-04-18T06:47:36.342Z,54016.00
2018-04-18T06:48:36.356Z,55808.00
2018-04-18T06:49:36.389Z,55680.00
2018-04-18T06:50:36.414Z,56608.00
2018-04-18T06:51:36.427Z,58560.00
2018-04-18T06:52:36.460Z,58400.00
2018-04-18T06:53:36.476Z,57376.00
2018-04-18T06:54:36.508Z,56320.00
2018-04-18T06:55:36.528Z,57312.00
2018-04-18T06:56:36.554Z,59936.00
2018-04-18T06:57:36.611Z,60448.00
2018-04-18T06:58:36.603Z,59616.00
2018-04-18T06:59:36.631Z,59456.00
2018-04-18T07:00:36.655Z,57888.00
2018-04-18T07:01:36.683Z,58656.00
2018-04-18T07:02:36.701Z,60736.00
2018-04-18T07:03:36.730Z,62432.00
2018-04-18T07:04:36.753Z,62176.00
2018-04-18T07:05:36.788Z,61728.00
2018-04-18T07:06:36.847Z,63136.00
2018-04-18T07:07:36.837Z,63552.00
2018-04-18T07:08:36.857Z,63072.00
2018-04-18T07:09:36.882Z,63552.00
2018-04-18T07:10:36.910Z,64416.00
2018-04-18T07:11:36.941Z,64000.00
2018-04-18T07:12:36.961Z,64896.00
2018-04-18T07:13:37.012Z,65088.00
2018-04-18T07:14:37.015Z,64288.00
2018-04-18T07:15:37.050Z,63968.00
2018-04-18T07:16:37.068Z,65216.00
2018-04-18T07:17:37.107Z,65696.00
2018-04-18T07:18:37.133Z,65792.00
2018-04-18T07:19:37.159Z,66592.00
2018-04-18T07:20:37.184Z,67808.00
2018-04-18T07:21:37.215Z,68224.00
2018-04-18T07:22:37.238Z,67808.00
2018-04-18T07:23:37.266Z,67456.00
2018-04-18T07:24:37.297Z,68448.00
2018-04-18T07:25:37.329Z,68704.00
2018-04-18T07:26:37.355Z,67456.00
2018-04-18T07:27:37.414Z,66848.00
2018-04-18T07:28:37.414Z,68320.00
2018-04-18T07:29:37.435Z,69056.00
2018-04-18T07:30:37.471Z,69504.00
2018-04-18T07:31:37.493Z,70368.00
2018-04-18T07:32:37.533Z,70336.00
2018-04-18T07:33:37.550Z,70016.00
2018-04-18T07:34:37.589Z,69920.00
2018-04-18T07:35:37.612Z,68736.00
2018-04-18T07:36:37.647Z,70784.00
2018-04-18T07:37:37.672Z,73792.00
2018-04-18T07:38:37.703Z,72576.00
2018-04-18T07:39:37.728Z,71808.00
2018-04-18T07:40:37.766Z,72032.00
2018-04-18T07:41:37.789Z,72544.00
2018-04-18T07:42:37.827Z,73792.00
2018-04-18T07:43:37.856Z,73536.00
2018-04-18T07:44:37.878Z,72160.00
2018-04-18T07:45:37.916Z,72960.00
2018-04-18T07:46:37.995Z,74464.00
2018-04-18T07:47:37.971Z,74944.00
2018-04-18T07:48:38.004Z,74400.00
2018-04-18T07:49:38.032Z,74880.00
2018-04-18T07:50:38.067Z,74400.00
2018-04-18T07:51:38.095Z,72480.00
2018-04-18T07:52:38.124Z,70112.00
2018-04-18T07:53:38.156Z,69568.00
2018-04-18T07:54:38.193Z,72224.00
2018-04-18T07:55:38.221Z,73056.00
2018-04-18T07:56:38.243Z,74176.00
2018-04-18T07:57:38.277Z,73952.00
2018-04-18T07:58:38.309Z,74272.00
2018-04-18T07:59:38.335Z,74496.00
2018-04-18T08:00:38.373Z,74016.00
2018-04-18T08:01:38.401Z,74656.00
2018-04-18T08:02:38.430Z,75200.00
2018-04-18T08:03:38.467Z,75008.00
2018-04-18T08:04:38.498Z,75232.00
2018-04-18T08:05:38.520Z,75360.00
2018-04-18T08:06:38.556Z,74880.00
2018-04-18T08:07:38.583Z,75200.00
2018-04-18T08:08:38.617Z,74560.00
2018-04-18T08:09:38.651Z,74144.00
2018-04-18T08:10:38.674Z,74432.00
2018-04-18T08:11:38.711Z,75296.00
2018-04-18T08:12:38.737Z,74080.00
2018-04-18T08:13:38.771Z,72736.00
2018-04-18T08:14:38.815Z,73728.00
2018-04-18T08:15:38.838Z,76032.00
2018-04-18T08:16:38.866Z,77984.00
2018-04-18T08:17:38.902Z,75456.00
2018-04-18T08:18:38.925Z,76416.00
2018-04-18T08:19:38.967Z,77920.00
2018-04-18T08:20:38.996Z,77408.00
2018-04-18T08:21:39.025Z,76480.00
2018-04-18T08:22:39.059Z,75840.00
2018-04-18T08:23:39.084Z,75776.00
2018-04-18T08:24:39.123Z,76320.00
2018-04-18T08:25:39.149Z,76704.00
2018-04-18T08:26:39.189Z,76480.00
2018-04-18T08:27:39.216Z,75072.00
2018-04-18T08:28:39.250Z,76576.00
2018-04-18T08:29:39.284Z,75616.00
2018-04-18T08:30:39.313Z,71680.00
2018-04-18T08:31:39.341Z,73888.00
2018-04-18T08:32:39.382Z,73632.00
2018-04-18T08:33:39.405Z,74432.00
2018-04-18T08:34:39.446Z,72832.00
2018-04-18T08:35:39.473Z,70976.00
2018-04-18T08:36:39.506Z,75072.00
2018-04-18T08:37:39.532Z,78688.00
2018-04-18T08:38:39.573Z,77248.00
2018-04-18T08:39:39.605Z,78720.00
2018-04-18T08:40:39.629Z,81376.00
2018-04-18T08:41:39.664Z,81760.00
2018-04-18T08:42:39.700Z,81984.00
2018-04-18T08:43:39.726Z,81472.00
2018-04-18T08:44:39.772Z,81728.00
2018-04-18T08:45:39.792Z,80000.00
2018-04-18T08:46:39.832Z,79552.00
2018-04-18T08:47:39.864Z,81536.00
2018-04-18T08:48:39.889Z,80032.00
2018-04-18T08:49:39.931Z,78144.00
2018-04-18T08:51:39.992Z,73184.00
2018-04-18T08:52:40.028Z,74016.00
2018-04-18T08:53:40.063Z,74176.00
2018-04-18T08:54:40.099Z,80768.00
2018-04-18T08:55:40.135Z,78400.00
2018-04-18T08:56:40.163Z,79488.00
2018-04-18T08:57:40.195Z,79456.00
2018-04-18T08:58:40.227Z,81344.00
2018-04-18T08:59:40.263Z,82368.00
2018-04-18T09:00:40.295Z,82624.00
2018-04-18T09:01:40.321Z,83904.00
2018-04-18T09:02:40.356Z,84672.00
2018-04-18T09:03:40.390Z,85088.00
2018-04-18T09:04:40.419Z,82720.00
2018-04-18T09:05:40.460Z,84512.00
2018-04-18T09:06:40.495Z,80736.00
2018-04-18T09:07:40.521Z,80192.00
2018-04-18T09:08:40.552Z,84064.00
2018-04-18T09:09:40.592Z,86912.00
2018-04-18T09:10:40.625Z,85312.00
2018-04-18T09:11:40.652Z,82816.00
2018-04-18T09:12:40.691Z,86656.00
2018-04-18T09:13:40.716Z,86880.00
2018-04-18T09:14:40.752Z,84576.00
2018-04-18T09:15:40.828Z,84768.00
2018-04-18T09:16:40.821Z,81728.00
2018-04-18T09:17:40.854Z,81216.00
2018-04-18T09:18:40.881Z,80992.00
2018-04-18T09:19:40.923Z,88608.00
2018-04-18T09:20:40.950Z,88256.00
2018-04-18T09:21:40.988Z,88096.00
2018-04-18T09:22:41.023Z,87040.00
2018-04-18T09:23:41.048Z,82656.00
2018-04-18T09:24:41.089Z,82336.00
2018-04-18T09:25:41.114Z,83104.00
2018-04-18T09:26:41.149Z,85760.00
2018-04-18T09:27:41.180Z,84576.00
2018-04-18T09:28:41.217Z,84480.00
2018-04-18T09:29:41.250Z,87488.00
2018-04-18T09:30:41.287Z,88896.00
2018-04-18T09:31:41.317Z,87616.00
2018-04-18T09:32:41.356Z,88768.00
2018-04-18T09:33:41.381Z,89664.00
2018-04-18T09:34:41.422Z,83648.00
2018-04-18T09:35:41.448Z,80256.00
2018-04-18T09:36:41.482Z,84928.00
2018-04-18T09:37:41.524Z,84128.00
2018-04-18T09:38:41.550Z,85952.00
2018-04-18T09:39:41.600Z,86176.00
2018-04-18T09:40:41.625Z,88256.00
2018-04-18T09:41:41.652Z,90080.00
2018-04-18T09:42:41.693Z,90496.00
2018-04-18T09:43:41.724Z,88512.00
2018-04-18T09:44:41.754Z,88352.00
2018-04-18T09:45:41.785Z,90528.00
2018-04-18T09:46:41.820Z,90784.00
2018-04-18T09:47:41.859Z,89760.00
2018-04-18T09:48:41.885Z,86496.00
2018-04-18T09:49:41.928Z,86912.00
2018-04-18T09:50:41.952Z,88000.00
2018-04-18T09:51:41.995Z,85824.00
2018-04-18T09:52:42.028Z,85056.00
2018-04-18T09:53:42.056Z,84608.00
2018-04-18T09:54:42.101Z,87392.00
2018-04-18T09:55:42.121Z,86880.00
2018-04-18T09:56:42.159Z,87296.00
2018-04-18T09:57:42.199Z,84928.00
2018-04-18T09:58:42.225Z,84096.00
2018-04-18T09:59:42.257Z,82976.00
2018-04-18T10:00:42.295Z,78560.00
2018-04-18T10:01:42.334Z,76224.00
2018-04-18T10:02:42.369Z,78976.00
2018-04-18T10:03:42.395Z,81184.00
2018-04-18T10:04:42.430Z,82048.00
2018-04-18T10:05:42.467Z,82848.00
2018-04-18T10:06:42.503Z,83808.00
2018-04-18T10:07:42.532Z,81632.00
2018-04-18T10:08:42.567Z,80256.00
2018-04-18T10:09:42.598Z,80512.00
2018-04-18T10:10:42.628Z,81792.00
2018-04-18T10:11:42.672Z,83808.00
2018-04-18T10:12:42.695Z,85760.00
2018-04-18T10:13:42.739Z,86304.00
2018-04-18T10:14:42.773Z,86848.00
2018-04-18T10:15:42.805Z,80640.00
2018-04-18T10:16:42.839Z,81376.00
2018-04-18T10:17:42.870Z,81888.00
2018-04-18T10:18:42.900Z,81184.00
2018-04-18T10:19:42.938Z,79520.00
2018-04-18T10:20:42.972Z,75648.00
2018-04-18T10:21:43.001Z,72320.00
2018-04-18T10:22:43.033Z,72576.00
2018-04-18T10:23:43.075Z,74720.00
2018-04-18T10:24:43.103Z,76000.00
2018-04-18T10:25:43.140Z,77536.00
2018-04-18T10:26:43.174Z,76864.00
2018-04-18T10:27:43.201Z,79616.00
2018-04-18T10:28:43.242Z,79424.00
2018-04-18T10:29:43.269Z,78976.00
2018-04-18T10:30:43.304Z,78656.00
2018-04-18T10:31:43.334Z,80256.00
2018-04-18T10:32:43.370Z,76704.00
2018-04-18T10:33:43.404Z,78432.00
2018-04-18T10:34:43.440Z,77440.00
2018-04-18T10:35:43.472Z,78016.00
2018-04-18T10:36:43.506Z,81376.00
2018-04-18T10:37:43.545Z,81536.00
2018-04-18T10:38:43.572Z,78816.00
2018-04-18T10:39:43.615Z,79904.00
2018-04-18T10:40:43.643Z,81920.00
2018-04-18T10:41:43.674Z,79008.00
2018-04-18T10:42:43.714Z,82144.00
2018-04-18T10:43:43.744Z,84608.00
2018-04-18T10:44:43.779Z,82816.00
2018-04-18T10:45:43.809Z,77504.00
2018-04-18T10:46:43.845Z,78624.00
2018-04-18T10:47:43.884Z,76768.00
2018-04-18T10:48:43.910Z,78592.00
2018-04-18T10:49:43.942Z,78656.00
2018-04-18T10:50:43.978Z,73216.00
2018-04-18T10:51:44.016Z,73216.00
2018-04-18T10:52:44.049Z,74176.00
2018-04-18T10:53:44.080Z,78880.00
2018-04-18T10:54:44.111Z,79776.00
2018-04-18T10:55:44.153Z,75872.00
2018-04-18T10:56:44.183Z,74400.00
2018-04-18T10:57:44.219Z,73088.00
2018-04-18T10:58:44.257Z,75808.00
2018-04-18T10:59:44.286Z,81408.00
2018-04-18T11:00:44.318Z,83648.00
2018-04-18T11:01:44.352Z,85184.00
2018-04-18T11:02:44.391Z,85408.00
2018-04-18T11:03:44.418Z,81184.00
2018-04-18T11:04:44.451Z,74752.00
2018-04-18T11:05:44.494Z,68096.00
2018-04-18T11:06:44.529Z,67136.00
2018-04-18T11:07:44.563Z,70912.00
2018-04-18T11:08:44.595Z,76032.00
2018-04-18T11:09:44.621Z,79744.00
2018-04-18T11:10:44.656Z,81600.00
2018-04-18T11:11:44.696Z,82048.00
2018-04-18T11:12:44.722Z,79648.00
2018-04-18T11:13:44.764Z,79968.00
2018-04-18T11:14:44.796Z,79072.00
2018-04-18T11:15:44.825Z,79712.00
2018-04-18T11:16:44.858Z,79104.00
2018-04-18T11:17:44.895Z,75744.00
2018-04-18T11:18:44.937Z,74688.00
2018-04-18T11:19:44.968Z,77600.00
2018-04-18T11:20:44.997Z,78560.00
2018-04-18T11:21:45.034Z,78496.00
2018-04-18T11:22:45.065Z,78336.00
2018-04-18T11:23:45.108Z,78048.00
2018-04-18T11:24:45.132Z,75232.00
2018-04-18T11:25:45.171Z,78528.00
2018-04-18T11:26:45.200Z,80032.00
2018-04-18T11:27:45.236Z,79328.00
2018-04-18T11:28:45.272Z,80000.00
2018-04-18T11:29:45.305Z,81504.00
2018-04-18T11:30:45.338Z,83136.00
2018-04-18T11:31:45.373Z,83104.00
2018-04-18T11:32:45.402Z,79872.00
2018-04-18T11:33:45.444Z,81280.00
2018-04-18T11:34:45.470Z,83392.00
2018-04-18T11:35:45.512Z,82720.00
2018-04-18T11:36:45.546Z,80256.00
2018-04-18T11:37:45.572Z,74656.00
2018-04-18T11:38:45.613Z,74240.00
2018-04-18T11:39:45.649Z,76640.00
2018-04-18T11:40:45.679Z,73472.00
2018-04-18T11:41:45.710Z,69792.00
2018-04-18T11:42:45.741Z,72832.00
2018-04-18T11:43:45.783Z,70336.00
2018-04-18T11:44:45.816Z,69312.00
2018-04-18T11:45:45.849Z,68896.00
2018-04-18T11:46:45.884Z,68448.00
2018-04-18T11:47:45.919Z,66656.00
2018-04-18T11:48:45.947Z,65888.00
2018-04-18T11:49:45.983Z,63840.00
2018-04-18T11:50:46.019Z,62240.00
2018-04-18T11:51:46.048Z,64800.00
2018-04-18T11:52:46.084Z,64256.00
2018-04-18T11:53:46.115Z,66720.00
2018-04-18T11:54:46.144Z,67680.00
2018-04-18T11:55:46.186Z,66784.00
2018-04-18T11:56:46.215Z,62592.00
2018-04-18T11:57:46.252Z,66688.00
2018-04-18T11:58:46.288Z,66656.00
2018-04-18T11:59:46.312Z,60128.00
2018-04-18T12:00:46.351Z,65312.00
2018-04-18T12:01:46.384Z,68448.00
2018-04-18T12:02:46.414Z,65120.00
2018-04-18T12:03:46.456Z,63264.00
2018-04-18T12:04:46.486Z,64000.00
2018-04-18T12:05:46.523Z,62048.00
2018-04-18T12:06:46.552Z,62080.00
2018-04-18T12:07:46.592Z,62464.00
2018-04-18T12:08:46.623Z,61952.00
2018-04-18T12:09:46.649Z,62272.00
2018-04-18T12:10:46.683Z,63840.00
2018-04-18T12:11:46.720Z,64736.00
2018-04-18T12:12:46.748Z,67392.00
2018-04-18T12:13:46.788Z,70880.00
2018-04-18T12:14:46.814Z,75392.00
2018-04-18T12:15:46.856Z,82144.00
2018-04-18T12:16:46.889Z,97536.00
2018-04-18T12:17:46.914Z,72320.00
2018-04-18T12:18:46.953Z,34848.00
2018-04-18T12:19:46.979Z,26784.00
2018-04-18T12:20:47.021Z,25248.00